createdAt,value
2019-06-26T00:00:09.148Z,101146.95
2019-06-26T00:02:42.929Z,101147.05
2019-06-26T00:05:15.797Z,101141.30
2019-06-26T00:07:48.468Z,101136.02
2019-06-26T00:10:21.247Z,101139.77
2019-06-26T00:12:55.026Z,101139.38
2019-06-26T00:15:27.660Z,101131.55
2019-06-26T00:18:00.418Z,101131.69
2019-06-26T00:20:33.266Z,101134.10
2019-06-26T00:23:05.606Z,101131.91
2019-06-26T00:25:38.139Z,101127.59
2019-06-26T00:28:11.022Z,101142.32
2019-06-26T00:30:44.849Z,101136.26
2019-06-26T00:33:18.635Z,101136.33
2019-06-26T00:35:51.554Z,101136.33
2019-06-26T00:38:23.810Z,101134.59
2019-06-26T00:40:56.746Z,101130.58
2019-06-26T00:43:41.970Z,101130.98
2019-06-26T00:46:03.717Z,101134.09
2019-06-26T00:48:37.356Z,101135.43
2019-06-26T00:51:10.164Z,101128.37
2019-06-26T00:53:43.152Z,101133.83
2019-06-26T00:56:15.768Z,101128.53
2019-06-26T00:58:48.010Z,101129.92
2019-06-26T01:01:20.318Z,101126.87
2019-06-26T01:03:54.728Z,101133.22
2019-06-26T01:06:45.316Z,101129.82
2019-06-26T01:09:17.556Z,101128.55
2019-06-26T01:11:49.968Z,101132.16
2019-06-26T01:14:22.730Z,101127.75
2019-06-26T01:16:55.317Z,101126.81
2019-06-26T01:19:28.071Z,101124.58
2019-06-26T01:22:01.067Z,101127.31
2019-06-26T01:24:33.866Z,101125.98
2019-06-26T01:27:06.369Z,101126.48
2019-06-26T01:29:39.316Z,101116.73
2019-06-26T01:32:12.076Z,101116.38
2019-06-26T01:34:46.903Z,101113.38
2019-06-26T01:37:19.514Z,101111.64
2019-06-26T01:39:52.271Z,101115.22
2019-06-26T01:42:24.876Z,101113.50
2019-06-26T01:44:57.466Z,101113.98
2019-06-26T01:47:29.965Z,101106.43
2019-06-26T01:50:02.882Z,101109.10
2019-06-26T01:52:35.674Z,101109.59
2019-06-26T01:55:12.140Z,101116.73
2019-06-26T01:57:45.017Z,101114.06
2019-06-26T02:00:18.087Z,101110.16
2019-06-26T02:02:50.912Z,101112.04
2019-06-26T02:05:24.896Z,101116.54
2019-06-26T02:07:57.499Z,101110.70
2019-06-26T02:10:29.869Z,101109.75
2019-06-26T02:13:02.281Z,101106.69
2019-06-26T02:15:35.204Z,101112.92
2019-06-26T02:18:09.883Z,101109.86
2019-06-26T02:20:42.708Z,101110.84
2019-06-26T02:23:15.342Z,101109.17
2019-06-26T02:25:47.688Z,101108.73
2019-06-26T02:28:20.205Z,101107.44
2019-06-26T02:30:53.120Z,101111.05
2019-06-26T02:33:26.959Z,101109.81
2019-06-26T02:35:59.808Z,101106.34
2019-06-26T02:38:32.422Z,101113.55
2019-06-26T02:41:06.460Z,101114.44
2019-06-26T02:43:39.394Z,101106.44
2019-06-26T02:46:11.930Z,101110.09
2019-06-26T02:48:44.739Z,101106.09
2019-06-26T02:51:17.729Z,101107.47
2019-06-26T02:53:50.345Z,101099.98
2019-06-26T02:56:22.688Z,101101.33
2019-06-26T02:58:54.997Z,101098.66
2019-06-26T03:01:27.842Z,101103.86
2019-06-26T03:04:00.476Z,101101.14
2019-06-26T03:06:33.403Z,101097.48
2019-06-26T03:09:08.078Z,101104.61
2019-06-26T03:11:40.818Z,101104.21
2019-06-26T03:14:13.692Z,101099.27
2019-06-26T03:16:46.232Z,101091.22
2019-06-26T03:19:18.632Z,101097.44
2019-06-26T03:21:50.990Z,101096.02
2019-06-26T03:24:23.705Z,101096.84
2019-06-26T03:26:56.469Z,101102.55
2019-06-26T03:29:29.083Z,101099.38
2019-06-26T03:32:01.824Z,101099.38
2019-06-26T03:34:34.819Z,101101.59
2019-06-26T03:37:07.809Z,101104.16
2019-06-26T03:39:40.821Z,101099.61
2019-06-26T03:42:13.770Z,101101.70
2019-06-26T03:44:46.393Z,101098.52
2019-06-26T03:47:18.746Z,101097.63
2019-06-26T03:49:51.618Z,101096.60
2019-06-26T03:52:24.490Z,101096.94
2019-06-26T03:54:57.340Z,101092.23
2019-06-26T03:57:29.903Z,101093.45
2019-06-26T04:00:02.510Z,101094.66
2019-06-26T04:02:35.053Z,101089.47
2019-06-26T04:05:10.044Z,101088.40
2019-06-26T04:07:43.031Z,101093.06
2019-06-26T04:10:15.990Z,101089.73
2019-06-26T04:12:48.548Z,101089.49
2019-06-26T04:15:21.077Z,101091.06
2019-06-26T04:17:53.626Z,101089.92
2019-06-26T04:20:27.143Z,101097.64
2019-06-26T04:22:59.822Z,101094.23
2019-06-26T04:25:32.345Z,101103.70
2019-06-26T04:28:06.441Z,101101.16
2019-06-26T04:30:38.569Z,101090.39
2019-06-26T04:33:11.253Z,101092.81
2019-06-26T04:35:43.581Z,101091.55
2019-06-26T04:38:16.262Z,101083.52
2019-06-26T04:40:48.687Z,101080.91
2019-06-26T04:43:20.948Z,101087.48
2019-06-26T04:45:57.993Z,101077.66
2019-06-26T04:48:27.509Z,101085.49
2019-06-26T04:50:59.825Z,101078.69
2019-06-26T04:53:32.083Z,101081.63
2019-06-26T04:56:04.974Z,101081.59
2019-06-26T04:58:37.211Z,101079.90
2019-06-26T05:01:09.548Z,101074.60
2019-06-26T05:03:42.042Z,101071.39
2019-06-26T05:06:14.762Z,101077.81
2019-06-26T05:08:47.111Z,101071.83
2019-06-26T05:11:19.439Z,101067.02
2019-06-26T05:13:51.684Z,101066.11
2019-06-26T05:16:24.005Z,101064.41
2019-06-26T05:18:56.505Z,101063.73
2019-06-26T05:21:29.318Z,101065.25
2019-06-26T05:24:01.667Z,101057.92
2019-06-26T05:26:34.177Z,101053.97
2019-06-26T05:29:06.543Z,101054.70
2019-06-26T05:31:39.305Z,101056.05
2019-06-26T05:34:11.930Z,101048.89
2019-06-26T05:36:44.651Z,101054.73
2019-06-26T05:39:16.902Z,101060.50
2019-06-26T05:41:49.611Z,101057.52
2019-06-26T05:44:21.857Z,101051.85
2019-06-26T05:46:55.282Z,101059.86
2019-06-26T05:49:27.789Z,101057.72
2019-06-26T05:52:02.182Z,101053.45
2019-06-26T05:54:34.636Z,101065.98
2019-06-26T05:57:07.198Z,101050.34
2019-06-26T05:59:39.692Z,101052.51
2019-06-26T06:02:12.450Z,101051.14
2019-06-26T06:04:44.742Z,101053.39
2019-06-26T06:07:17.424Z,101053.39
2019-06-26T06:09:50.101Z,101055.13
2019-06-26T06:12:22.477Z,101050.41
2019-06-26T06:14:54.874Z,101056.52
2019-06-26T06:17:27.208Z,101056.61
2019-06-26T06:19:59.439Z,101048.23
2019-06-26T06:22:32.254Z,101051.19
2019-06-26T06:25:05.112Z,101054.91
2019-06-26T06:27:37.936Z,101054.91
2019-06-26T06:30:11.192Z,101052.15
2019-06-26T06:32:43.913Z,101054.22
2019-06-26T06:35:16.506Z,101054.22
2019-06-26T06:37:49.375Z,101050.15
2019-06-26T06:40:24.203Z,101057.95
2019-06-26T06:42:57.244Z,101045.46
2019-06-26T06:45:30.098Z,101050.81
2019-06-26T06:48:03.168Z,101052.41
2019-06-26T06:50:35.614Z,101048.41
2019-06-26T06:53:08.417Z,101046.60
2019-06-26T06:55:40.980Z,101046.30
2019-06-26T06:58:13.388Z,101047.08
2019-06-26T07:00:45.655Z,101046.23
2019-06-26T07:03:18.520Z,101042.68
2019-06-26T07:05:51.204Z,101054.66
2019-06-26T07:08:24.046Z,101047.66
2019-06-26T07:10:57.126Z,101044.25
2019-06-26T07:13:30.168Z,101042.94
2019-06-26T07:16:03.221Z,101043.63
2019-06-26T07:18:35.742Z,101042.79
2019-06-26T07:21:07.985Z,101040.58
2019-06-26T07:23:40.756Z,101035.09
2019-06-26T07:26:13.575Z,101029.11
2019-06-26T07:28:46.398Z,101043.21
2019-06-26T07:31:18.957Z,101040.97
2019-06-26T07:33:55.422Z,101036.16
2019-06-26T07:36:25.935Z,101034.90
2019-06-26T07:39:00.189Z,101035.59
2019-06-26T07:41:32.447Z,101030.54
2019-06-26T07:44:05.391Z,101032.94
2019-06-26T07:46:39.808Z,101029.35
2019-06-26T07:49:12.587Z,101027.88
2019-06-26T07:51:44.842Z,101028.96
2019-06-26T07:54:17.743Z,101024.81
2019-06-26T07:56:50.440Z,101025.55
2019-06-26T07:59:22.754Z,101025.64
2019-06-26T08:01:55.001Z,101031.89
2019-06-26T08:04:28.227Z,101017.32
2019-06-26T08:07:00.751Z,101020.47
2019-06-26T08:09:33.092Z,101019.44
2019-06-26T08:12:05.767Z,101018.71
2019-06-26T08:14:38.081Z,101019.11
2019-06-26T08:17:10.640Z,101011.17
2019-06-26T08:19:43.407Z,101012.41
2019-06-26T08:22:15.657Z,101010.63
2019-06-26T08:24:48.283Z,101010.38
2019-06-26T08:27:20.547Z,101007.09
2019-06-26T08:29:53.301Z,101005.33
2019-06-26T08:32:26.208Z,100998.91
2019-06-26T08:34:58.612Z,101005.06
2019-06-26T08:37:31.100Z,100998.91
2019-06-26T08:40:04.129Z,100989.20
2019-06-26T08:42:37.728Z,100989.72
2019-06-26T08:45:12.064Z,100985.34
2019-06-26T08:47:44.771Z,100989.70
2019-06-26T08:50:17.843Z,100983.42
2019-06-26T08:52:50.956Z,100982.30
2019-06-26T08:55:23.378Z,100984.44
2019-06-26T08:57:56.160Z,100985.80
2019-06-26T09:00:28.475Z,100995.02
2019-06-26T09:03:01.553Z,100998.56
2019-06-26T09:05:47.701Z,100989.44
2019-06-26T09:08:08.843Z,100988.84
2019-06-26T09:10:44.725Z,100996.83
2019-06-26T09:13:15.629Z,100978.89
2019-06-26T09:15:49.896Z,100985.30
2019-06-26T09:18:34.885Z,100971.88
2019-06-26T09:20:56.321Z,100969.52
2019-06-26T09:23:31.022Z,100968.60
2019-06-26T09:26:02.566Z,100967.62
2019-06-26T09:28:34.912Z,100966.38
2019-06-26T09:31:07.464Z,100966.59
2019-06-26T09:33:39.812Z,100951.21
2019-06-26T09:36:12.226Z,100949.45
2019-06-26T09:38:44.706Z,100954.22
2019-06-26T09:41:17.647Z,100950.13
2019-06-26T09:43:49.901Z,100947.86
2019-06-26T09:46:22.545Z,100950.10
2019-06-26T09:48:54.984Z,100937.23
2019-06-26T09:51:27.506Z,100945.66
2019-06-26T09:54:00.282Z,100938.27
2019-06-26T09:56:33.896Z,100933.66
2019-06-26T09:59:06.533Z,100940.18
2019-06-26T10:01:39.399Z,100951.70
2019-06-26T10:04:12.121Z,100933.41
2019-06-26T10:06:44.845Z,100930.27
2019-06-26T10:09:17.529Z,100928.79
2019-06-26T10:11:49.944Z,100926.48
2019-06-26T10:14:22.191Z,100912.73
2019-06-26T10:16:55.084Z,100923.42
2019-06-26T10:19:28.141Z,100920.80
2019-06-26T10:22:00.835Z,100916.28
2019-06-26T10:24:33.059Z,100909.54
2019-06-26T10:27:05.588Z,100911.75
2019-06-26T10:29:37.930Z,100913.49
2019-06-26T10:32:10.396Z,100901.90
2019-06-26T10:34:43.354Z,100900.81
2019-06-26T10:37:16.080Z,100897.41
2019-06-26T10:39:49.501Z,100896.95
2019-06-26T10:42:21.846Z,100886.98
2019-06-26T10:44:54.055Z,100884.95
2019-06-26T10:47:26.964Z,100873.98
2019-06-26T10:49:59.608Z,100887.30
2019-06-26T10:52:32.268Z,100889.78
2019-06-26T10:55:10.640Z,100872.77
2019-06-26T10:57:43.556Z,100874.63
2019-06-26T11:00:16.499Z,100872.71
2019-06-26T11:02:48.907Z,100869.30
2019-06-26T11:05:22.444Z,100865.03
2019-06-26T11:07:56.424Z,100862.16
2019-06-26T11:10:29.112Z,100860.80
2019-06-26T11:13:01.879Z,100853.20
2019-06-26T11:15:34.872Z,100851.41
2019-06-26T11:18:07.554Z,100836.82
2019-06-26T11:20:39.904Z,100838.25
2019-06-26T11:23:12.620Z,100836.73
2019-06-26T11:25:44.898Z,100836.89
2019-06-26T11:28:17.673Z,100823.86
2019-06-26T11:30:50.094Z,100822.24
2019-06-26T11:33:22.526Z,100818.77
2019-06-26T11:35:54.788Z,100810.52
2019-06-26T11:38:27.095Z,100811.42
2019-06-26T11:41:01.787Z,100801.48
2019-06-26T11:43:34.308Z,100802.00
2019-06-26T11:46:06.927Z,100797.30
2019-06-26T11:48:39.605Z,100800.17
2019-06-26T11:51:12.381Z,100795.70
2019-06-26T11:53:45.168Z,100795.20
2019-06-26T11:56:17.923Z,100791.20
2019-06-26T11:58:52.025Z,100788.72
2019-06-26T12:01:24.645Z,100787.65
2019-06-26T12:03:58.453Z,100772.19
2019-06-26T12:06:32.485Z,100782.59
2019-06-26T12:09:06.775Z,100779.94
2019-06-26T12:11:39.371Z,100781.28
2019-06-26T12:14:12.561Z,100775.31
2019-06-26T12:16:45.266Z,100775.22
2019-06-26T12:19:19.890Z,100762.95
2019-06-26T12:21:53.155Z,100769.88
2019-06-26T12:24:26.738Z,100761.72
2019-06-26T12:26:59.941Z,100756.70
2019-06-26T12:29:33.153Z,100750.68
2019-06-26T12:32:06.037Z,100756.05
2019-06-26T12:34:40.212Z,100743.14
2019-06-26T12:37:12.661Z,100744.78
2019-06-26T12:39:45.106Z,100752.92
2019-06-26T12:42:17.822Z,100741.59
2019-06-26T12:44:50.126Z,100739.39
2019-06-26T12:47:22.469Z,100738.83
2019-06-26T12:49:54.865Z,100732.70
2019-06-26T12:52:27.719Z,100726.21
2019-06-26T12:55:01.745Z,100729.44
2019-06-26T12:57:34.885Z,100728.73
2019-06-26T13:00:11.093Z,100724.23
2019-06-26T13:02:44.064Z,100721.91
2019-06-26T13:05:17.324Z,100711.92
2019-06-26T13:07:50.294Z,100719.14
2019-06-26T13:10:24.190Z,100713.59
2019-06-26T13:12:57.574Z,100715.16
2019-06-26T13:15:30.427Z,100711.93
2019-06-26T13:18:02.991Z,100703.34
2019-06-26T13:20:51.590Z,100702.72
2019-06-26T13:23:09.546Z,100699.86
2019-06-26T13:25:43.241Z,100692.02
2019-06-26T13:28:15.776Z,100688.70
2019-06-26T13:30:48.658Z,100668.32
2019-06-26T13:33:22.093Z,100686.07
2019-06-26T13:35:54.887Z,100670.51
2019-06-26T13:38:27.868Z,100671.41
2019-06-26T13:41:00.879Z,100674.59
2019-06-26T13:43:33.450Z,100670.27
2019-06-26T13:46:06.191Z,100668.31
2019-06-26T13:48:39.099Z,100665.86
2019-06-26T13:51:11.499Z,100667.13
2019-06-26T13:53:44.557Z,100659.38
2019-06-26T13:56:17.192Z,100661.06
2019-06-26T13:58:49.511Z,100654.45
2019-06-26T14:01:23.128Z,100661.88
2019-06-26T14:03:56.503Z,100661.96
2019-06-26T14:06:29.010Z,100658.25
2019-06-26T14:09:01.483Z,100654.48
2019-06-26T14:11:35.668Z,100648.28
2019-06-26T14:14:08.023Z,100649.47
2019-06-26T14:16:40.692Z,100643.79
2019-06-26T14:19:13.358Z,100645.17
2019-06-26T14:21:45.758Z,100647.13
2019-06-26T14:24:18.355Z,100643.52
2019-06-26T14:26:51.552Z,100649.73
2019-06-26T14:29:24.326Z,100640.17
2019-06-26T14:31:57.073Z,100639.44
2019-06-26T14:34:31.211Z,100654.18
2019-06-26T14:37:03.962Z,100630.02
2019-06-26T14:39:36.303Z,100631.68
2019-06-26T14:42:10.460Z,100628.50
2019-06-26T14:44:42.898Z,100634.88
2019-06-26T14:47:15.721Z,100634.88
2019-06-26T14:49:48.271Z,100632.80
2019-06-26T14:52:21.196Z,100622.45
2019-06-26T14:54:54.053Z,100618.14
2019-06-26T14:57:26.743Z,100628.23
2019-06-26T14:59:59.516Z,100626.85
2019-06-26T15:02:32.379Z,100635.62
2019-06-26T15:05:06.912Z,100621.78
2019-06-26T15:07:39.582Z,100621.95
2019-06-26T15:10:12.231Z,100622.45
2019-06-26T15:12:45.247Z,100622.63
2019-06-26T15:15:19.098Z,100624.52
2019-06-26T15:17:52.134Z,100622.48
2019-06-26T15:20:25.127Z,100613.33
2019-06-26T15:22:58.843Z,100622.80
2019-06-26T15:25:32.017Z,100612.11
2019-06-26T15:28:05.037Z,100614.82
2019-06-26T15:30:37.795Z,100613.82
2019-06-26T15:33:10.530Z,100605.99
2019-06-26T15:35:43.341Z,100596.61
2019-06-26T15:38:15.934Z,100595.66
2019-06-26T15:40:48.274Z,100594.13
2019-06-26T15:43:21.066Z,100593.00
2019-06-26T15:45:54.041Z,100598.66
2019-06-26T15:48:27.034Z,100599.71
2019-06-26T15:50:59.578Z,100590.67
2019-06-26T15:53:31.967Z,100596.72
2019-06-26T15:56:04.297Z,100591.14
2019-06-26T15:58:37.126Z,100592.89
2019-06-26T16:01:10.104Z,100589.91
2019-06-26T16:03:42.699Z,100589.13
2019-06-26T16:06:15.471Z,100588.02
2019-06-26T16:08:48.562Z,100574.94
2019-06-26T16:11:21.446Z,100565.73
2019-06-26T16:13:54.034Z,100570.05
2019-06-26T16:16:26.361Z,100575.87
2019-06-26T16:19:03.321Z,100575.87
2019-06-26T16:21:36.039Z,100572.14
2019-06-26T16:24:08.835Z,100564.22
2019-06-26T16:26:41.371Z,100566.28
2019-06-26T16:29:14.493Z,100565.94
2019-06-26T16:31:47.025Z,100562.97
2019-06-26T16:34:19.426Z,100560.08
2019-06-26T16:36:52.963Z,100562.09
2019-06-26T16:39:25.921Z,100564.22
2019-06-26T16:41:58.353Z,100549.05
2019-06-26T16:44:32.062Z,100548.99
2019-06-26T16:47:04.614Z,100553.02
2019-06-26T16:49:37.119Z,100548.62
2019-06-26T16:52:09.877Z,100539.00
2019-06-26T16:54:42.919Z,100544.17
2019-06-26T16:57:15.415Z,100543.54
2019-06-26T16:59:48.176Z,100551.69
2019-06-26T17:02:21.155Z,100557.69
2019-06-26T17:04:54.015Z,100551.97
2019-06-26T17:07:26.723Z,100555.34
2019-06-26T17:09:59.510Z,100557.27
2019-06-26T17:12:32.057Z,100552.65
2019-06-26T17:15:06.370Z,100550.20
2019-06-26T17:17:39.286Z,100545.97
2019-06-26T17:20:13.808Z,100545.02
2019-06-26T17:22:46.748Z,100537.00
2019-06-26T17:25:19.201Z,100536.13
2019-06-26T17:27:51.842Z,100531.91
2019-06-26T17:30:25.606Z,100530.05
2019-06-26T17:32:58.233Z,100531.76
2019-06-26T17:35:30.851Z,100524.26
2019-06-26T17:38:03.546Z,100520.90
2019-06-26T17:40:35.800Z,100525.59
2019-06-26T17:43:12.461Z,100522.92
2019-06-26T17:45:42.890Z,100521.56
2019-06-26T17:48:15.545Z,100513.08
2019-06-26T17:50:48.068Z,100527.83
2019-06-26T17:53:22.035Z,100529.17
2019-06-26T17:55:54.592Z,100521.70
2019-06-26T17:58:27.488Z,100524.70
2019-06-26T18:01:00.116Z,100526.75
2019-06-26T18:03:32.898Z,100519.69
2019-06-26T18:06:05.825Z,100517.49
2019-06-26T18:08:38.063Z,100515.19
2019-06-26T18:11:11.521Z,100515.42
2019-06-26T18:13:43.759Z,100517.81
2019-06-26T18:16:16.081Z,100525.50
2019-06-26T18:18:48.320Z,100525.13
2019-06-26T18:21:20.900Z,100521.06
2019-06-26T18:23:53.282Z,100527.63
2019-06-26T18:26:25.921Z,100520.45
2019-06-26T18:28:58.421Z,100528.00
2019-06-26T18:31:31.691Z,100525.03
2019-06-26T18:34:04.530Z,100521.80
2019-06-26T18:36:37.086Z,100530.30
2019-06-26T18:39:10.244Z,100529.52
2019-06-26T18:41:43.078Z,100525.77
2019-06-26T18:44:15.339Z,100529.82
2019-06-26T18:46:47.642Z,100529.86
2019-06-26T18:49:21.292Z,100521.75
2019-06-26T18:51:53.594Z,100525.16
2019-06-26T18:54:26.276Z,100525.45
2019-06-26T18:56:59.098Z,100534.52
2019-06-26T18:59:31.354Z,100527.88
2019-06-26T19:02:03.766Z,100541.75
2019-06-26T19:04:37.000Z,100541.44
2019-06-26T19:07:09.724Z,100538.34
2019-06-26T19:09:42.438Z,100541.22
2019-06-26T19:12:15.190Z,100544.09
2019-06-26T19:14:48.676Z,100548.33
2019-06-26T19:17:21.084Z,100546.95
2019-06-26T19:19:53.827Z,100551.45
2019-06-26T19:22:26.800Z,100551.02
2019-06-26T19:24:59.442Z,100554.48
2019-06-26T19:27:32.584Z,100550.20
2019-06-26T19:30:07.940Z,100550.81
2019-06-26T19:32:40.758Z,100563.25
2019-06-26T19:35:20.613Z,100570.55
2019-06-26T19:37:47.554Z,100574.98
2019-06-26T19:40:23.638Z,100573.10
2019-06-26T19:42:54.453Z,100574.36
2019-06-26T19:45:27.806Z,100578.98
2019-06-26T19:48:00.787Z,100585.77
2019-06-26T19:50:33.241Z,100584.59
2019-06-26T19:53:06.244Z,100591.19
2019-06-26T19:55:39.138Z,100589.73
2019-06-26T19:58:12.113Z,100592.41
2019-06-26T20:00:45.004Z,100601.83
2019-06-26T20:03:17.697Z,100601.75
2019-06-26T20:05:50.719Z,100599.36
2019-06-26T20:08:23.409Z,100610.02
2019-06-26T20:10:56.223Z,100617.42
2019-06-26T20:13:28.733Z,100617.89
2019-06-26T20:16:01.393Z,100616.45
2019-06-26T20:18:34.171Z,100625.73
2019-06-26T20:21:06.705Z,100623.13
2019-06-26T20:23:39.331Z,100617.72
2019-06-26T20:26:12.195Z,100630.02
2019-06-26T20:28:44.793Z,100622.77
2019-06-26T20:31:17.231Z,100626.73
2019-06-26T20:33:50.401Z,100633.02
2019-06-26T20:36:23.433Z,100643.61
2019-06-26T20:38:55.831Z,100639.91
2019-06-26T20:41:28.580Z,100639.91
2019-06-26T20:44:00.974Z,100642.04
2019-06-26T20:46:33.673Z,100648.77
2019-06-26T20:49:06.833Z,100653.02
2019-06-26T20:51:39.816Z,100652.60
2019-06-26T20:54:12.420Z,100662.54
2019-06-26T20:56:45.181Z,100665.45
2019-06-26T20:59:17.797Z,100664.45
2019-06-26T21:01:50.493Z,100672.31
2019-06-26T21:04:22.990Z,100675.17
2019-06-26T21:06:55.274Z,100680.79
2019-06-26T21:09:27.766Z,100694.48
2019-06-26T21:12:00.345Z,100684.68
2019-06-26T21:14:32.876Z,100689.14
2019-06-26T21:17:05.364Z,100696.43
2019-06-26T21:19:38.225Z,100696.06
2019-06-26T21:22:11.140Z,100708.23
2019-06-26T21:24:43.458Z,100699.73
2019-06-26T21:27:16.001Z,100698.14
2019-06-26T21:29:48.289Z,100691.97
2019-06-26T21:32:20.516Z,100696.42
2019-06-26T21:34:53.155Z,100715.00
2019-06-26T21:37:25.947Z,100700.72
2019-06-26T21:39:59.092Z,100699.68
2019-06-26T21:42:31.513Z,100704.09
2019-06-26T21:45:05.219Z,100707.87
2019-06-26T21:47:37.936Z,100707.47
2019-06-26T21:50:10.946Z,100707.21
2019-06-26T21:52:43.706Z,100711.89
2019-06-26T21:55:30.189Z,100715.96
2019-06-26T21:58:09.852Z,100715.96
2019-06-26T22:01:00.066Z,100712.08
2019-06-26T22:03:50.154Z,100719.94
2019-06-26T22:06:28.358Z,100716.41
2019-06-26T22:09:19.219Z,100716.51
2019-06-26T22:11:52.403Z,100732.16
2019-06-26T22:14:25.016Z,100723.29
2019-06-26T22:16:57.637Z,100723.29
2019-06-26T22:19:29.891Z,100730.58
2019-06-26T22:22:02.653Z,100728.24
2019-06-26T22:24:35.137Z,100732.94
2019-06-26T22:27:07.920Z,100730.30
2019-06-26T22:29:40.396Z,100718.84
2019-06-26T22:32:12.675Z,100736.77
2019-06-26T22:34:48.098Z,100735.44
2019-06-26T22:37:19.233Z,100735.44
2019-06-26T22:39:51.712Z,100744.91
2019-06-26T22:42:24.294Z,100750.51
2019-06-26T22:44:57.046Z,100748.03
2019-06-26T22:47:29.653Z,100744.58
2019-06-26T22:50:02.177Z,100737.98
2019-06-26T22:52:35.077Z,100749.42
2019-06-26T22:55:08.496Z,100742.49
2019-06-26T22:57:41.585Z,100749.89
2019-06-26T23:00:16.525Z,100741.06
2019-06-26T23:02:49.050Z,100734.22
2019-06-26T23:05:22.192Z,100744.77
2019-06-26T23:07:55.071Z,100743.75
2019-06-26T23:10:27.746Z,100754.76
2019-06-26T23:13:00.486Z,100750.70
2019-06-26T23:15:32.912Z,100753.72
2019-06-26T23:18:05.301Z,100749.70
2019-06-26T23:20:38.417Z,100757.23
2019-06-26T23:23:10.915Z,100760.74
2019-06-26T23:25:43.364Z,100762.86
2019-06-26T23:28:16.505Z,100754.48
2019-06-26T23:30:49.359Z,100760.44
2019-06-26T23:33:21.746Z,100771.59
2019-06-26T23:35:54.746Z,100777.27
2019-06-26T23:38:27.737Z,100774.45
2019-06-26T23:41:00.496Z,100768.84
2019-06-26T23:43:33.291Z,100773.94
2019-06-26T23:46:05.724Z,100776.73
2019-06-26T23:48:38.486Z,100772.45
2019-06-26T23:51:11.540Z,100790.09
2019-06-26T23:53:44.835Z,100794.39
2019-06-26T23:56:17.273Z,100790.13
2019-06-26T23:58:49.660Z,100793.02
